sensor_id;sensor_type;location;lat;lon;timestamp;P1;durP1;ratioP1;P2;durP2;ratioP2
53287;SDS011;39172;45.550;12.072;2023-05-08T00:00:07;6.97;;;6.28;;
53287;SDS011;39172;45.550;12.072;2023-05-08T00:06:09;7.30;;;6.60;;
53287;SDS011;39172;45.550;12.072;2023-05-08T00:12:10;11.38;;;9.77;;
53287;SDS011;39172;45.550;12.072;2023-05-08T00:18:11;10.82;;;9.43;;
53287;SDS011;39172;45.550;12.072;2023-05-08T00:24:12;9.35;;;8.30;;
53287;SDS011;39172;45.550;12.072;2023-05-08T00:30:13;15.30;;;13.55;;
53287;SDS011;39172;45.550;12.072;2023-05-08T00:36:14;10.10;;;9.05;;
53287;SDS011;39172;45.550;12.072;2023-05-08T00:42:15;13.15;;;11.32;;
53287;SDS011;39172;45.550;12.072;2023-05-08T00:48:16;12.13;;;10.80;;
53287;SDS011;39172;45.550;12.072;2023-05-08T00:54:17;11.43;;;9.68;;
53287;SDS011;39172;45.550;12.072;2023-05-08T01:00:18;8.45;;;7.07;;
53287;SDS011;39172;45.550;12.072;2023-05-08T01:06:20;5.88;;;5.22;;
53287;SDS011;39172;45.550;12.072;2023-05-08T01:18:46;5.00;;;2.65;;
53287;SDS011;39172;45.550;12.072;2023-05-08T01:30:58;2.25;;;1.88;;
53287;SDS011;39172;45.550;12.072;2023-05-08T01:37:01;1.48;;;1.38;;
53287;SDS011;39172;45.550;12.072;2023-05-08T01:43:16;1.85;;;1.30;;
53287;SDS011;39172;45.550;12.072;2023-05-08T01:49:23;1.50;;;1.20;;
53287;SDS011;39172;45.550;12.072;2023-05-08T01:55:25;1.33;;;1.20;;
53287;SDS011;39172;45.550;12.072;2023-05-08T02:01:26;1.40;;;1.30;;
53287;SDS011;39172;45.550;12.072;2023-05-08T02:07:31;2.05;;;1.58;;
53287;SDS011;39172;45.550;12.072;2023-05-08T02:13:34;2.67;;;1.90;;
53287;SDS011;39172;45.550;12.072;2023-05-08T02:19:36;1.70;;;1.40;;
53287;SDS011;39172;45.550;12.072;2023-05-08T02:25:39;2.20;;;1.80;;
53287;SDS011;39172;45.550;12.072;2023-05-08T02:31:41;2.08;;;1.80;;
53287;SDS011;39172;45.550;12.072;2023-05-08T02:37:43;1.60;;;1.50;;
53287;SDS011;39172;45.550;12.072;2023-05-08T02:43:45;2.13;;;1.50;;
53287;SDS011;39172;45.550;12.072;2023-05-08T02:55:54;2.42;;;2.00;;
53287;SDS011;39172;45.550;12.072;2023-05-08T03:08:27;2.85;;;2.55;;
53287;SDS011;39172;45.550;12.072;2023-05-08T03:14:29;4.90;;;3.55;;
53287;SDS011;39172;45.550;12.072;2023-05-08T03:20:32;3.35;;;2.95;;
53287;SDS011;39172;45.550;12.072;2023-05-08T03:26:36;4.63;;;3.95;;
53287;SDS011;39172;45.550;12.072;2023-05-08T03:32:37;4.43;;;3.90;;
53287;SDS011;39172;45.550;12.072;2023-05-08T03:38:38;5.10;;;3.85;;
53287;SDS011;39172;45.550;12.072;2023-05-08T03:44:41;5.85;;;4.22;;
53287;SDS011;39172;45.550;12.072;2023-05-08T03:50:42;5.15;;;4.25;;
53287;SDS011;39172;45.550;12.072;2023-05-08T03:56:44;5.38;;;4.40;;
53287;SDS011;39172;45.550;12.072;2023-05-08T04:02:48;6.03;;;4.70;;
53287;SDS011;39172;45.550;12.072;2023-05-08T04:08:58;4.30;;;3.90;;
53287;SDS011;39172;45.550;12.072;2023-05-08T04:15:09;3.55;;;3.25;;
53287;SDS011;39172;45.550;12.072;2023-05-08T04:21:10;3.03;;;2.77;;
53287;SDS011;39172;45.550;12.072;2023-05-08T04:27:12;2.88;;;2.67;;
53287;SDS011;39172;45.550;12.072;2023-05-08T04:33:14;3.08;;;2.78;;
53287;SDS011;39172;45.550;12.072;2023-05-08T04:39:18;2.78;;;2.58;;
53287;SDS011;39172;45.550;12.072;2023-05-08T04:45:19;2.38;;;2.17;;
53287;SDS011;39172;45.550;12.072;2023-05-08T04:51:21;3.10;;;2.80;;
53287;SDS011;39172;45.550;12.072;2023-05-08T04:57:22;4.30;;;3.47;;
53287;SDS011;39172;45.550;12.072;2023-05-08T05:03:23;3.08;;;2.80;;
53287;SDS011;39172;45.550;12.072;2023-05-08T05:09:24;3.30;;;2.70;;
53287;SDS011;39172;45.550;12.072;2023-05-08T05:15:25;3.42;;;3.13;;
53287;SDS011;39172;45.550;12.072;2023-05-08T05:21:26;2.90;;;2.70;;
53287;SDS011;39172;45.550;12.072;2023-05-08T05:27:28;3.45;;;3.15;;
53287;SDS011;39172;45.550;12.072;2023-05-08T05:33:29;4.20;;;3.80;;
53287;SDS011;39172;45.550;12.072;2023-05-08T05:39:30;3.95;;;3.55;;
53287;SDS011;39172;45.550;12.072;2023-05-08T05:45:31;4.63;;;4.22;;
53287;SDS011;39172;45.550;12.072;2023-05-08T05:51:32;4.28;;;3.88;;
53287;SDS011;39172;45.550;12.072;2023-05-08T05:57:34;6.38;;;4.57;;
53287;SDS011;39172;45.550;12.072;2023-05-08T06:03:35;4.53;;;4.13;;
53287;SDS011;39172;45.550;12.072;2023-05-08T06:09:37;4.13;;;3.72;;
53287;SDS011;39172;45.550;12.072;2023-05-08T06:15:38;4.30;;;3.88;;
53287;SDS011;39172;45.550;12.072;2023-05-08T06:21:39;4.00;;;3.47;;
53287;SDS011;39172;45.550;12.072;2023-05-08T06:27:40;3.80;;;3.40;;
53287;SDS011;39172;45.550;12.072;2023-05-08T06:33:41;3.53;;;3.22;;
53287;SDS011;39172;45.550;12.072;2023-05-08T06:39:42;3.13;;;2.70;;
53287;SDS011;39172;45.550;12.072;2023-05-08T06:45:43;3.58;;;3.05;;
53287;SDS011;39172;45.550;12.072;2023-05-08T06:51:45;3.92;;;3.05;;
53287;SDS011;39172;45.550;12.072;2023-05-08T06:57:45;3.50;;;3.20;;
53287;SDS011;39172;45.550;12.072;2023-05-08T07:03:46;3.92;;;3.20;;
53287;SDS011;39172;45.550;12.072;2023-05-08T07:09:47;3.53;;;3.20;;
53287;SDS011;39172;45.550;12.072;2023-05-08T07:15:49;3.60;;;3.03;;
53287;SDS011;39172;45.550;12.072;2023-05-08T07:21:50;3.08;;;2.78;;
53287;SDS011;39172;45.550;12.072;2023-05-08T07:27:51;2.75;;;2.53;;
53287;SDS011;39172;45.550;12.072;2023-05-08T07:33:52;3.40;;;2.65;;
53287;SDS011;39172;45.550;12.072;2023-05-08T07:39:53;3.10;;;2.80;;
53287;SDS011;39172;45.550;12.072;2023-05-08T07:45:54;4.07;;;2.60;;
53287;SDS011;39172;45.550;12.072;2023-05-08T07:51:55;4.28;;;2.40;;
53287;SDS011;39172;45.550;12.072;2023-05-08T07:57:56;3.00;;;2.40;;
53287;SDS011;39172;45.550;12.072;2023-05-08T08:03:57;2.97;;;2.65;;
53287;SDS011;39172;45.550;12.072;2023-05-08T08:09:58;4.38;;;2.38;;
53287;SDS011;39172;45.550;12.072;2023-05-08T08:15:59;3.10;;;2.75;;
53287;SDS011;39172;45.550;12.072;2023-05-08T08:22:10;3.08;;;2.67;;
53287;SDS011;39172;45.550;12.072;2023-05-08T08:34:47;4.00;;;3.30;;
53287;SDS011;39172;45.550;12.072;2023-05-08T08:40:47;2.90;;;2.60;;
53287;SDS011;39172;45.550;12.072;2023-05-08T08:46:51;4.07;;;3.67;;
53287;SDS011;39172;45.550;12.072;2023-05-08T08:53:06;5.85;;;5.25;;
53287;SDS011;39172;45.550;12.072;2023-05-08T08:59:10;6.10;;;5.22;;
53287;SDS011;39172;45.550;12.072;2023-05-08T09:05:11;5.25;;;3.95;;
53287;SDS011;39172;45.550;12.072;2023-05-08T09:11:12;4.78;;;4.28;;
53287;SDS011;39172;45.550;12.072;2023-05-08T09:17:13;15.15;;;5.18;;
53287;SDS011;39172;45.550;12.072;2023-05-08T09:23:14;20.17;;;6.45;;
53287;SDS011;39172;45.550;12.072;2023-05-08T09:29:17;8.02;;;4.55;;
53287;SDS011;39172;45.550;12.072;2023-05-08T09:35:18;9.55;;;4.93;;
53287;SDS011;39172;45.550;12.072;2023-05-08T09:41:19;12.55;;;4.20;;
53287;SDS011;39172;45.550;12.072;2023-05-08T09:47:22;7.15;;;5.00;;
53287;SDS011;39172;45.550;12.072;2023-05-08T09:53:29;5.72;;;4.35;;
53287;SDS011;39172;45.550;12.072;2023-05-08T10:52:44;6.30;;;3.63;;
53287;SDS011;39172;45.550;12.072;2023-05-08T10:58:47;5.15;;;4.00;;
53287;SDS011;39172;45.550;12.072;2023-05-08T11:04:55;5.85;;;4.75;;
53287;SDS011;39172;45.550;12.072;2023-05-08T11:23:00;4.10;;;3.45;;
53287;SDS011;39172;45.550;12.072;2023-05-08T11:29:21;5.00;;;4.50;;
53287;SDS011;39172;45.550;12.072;2023-05-08T11:35:40;3.58;;;3.28;;
53287;SDS011;39172;45.550;12.072;2023-05-08T11:41:44;4.07;;;3.67;;
53287;SDS011;39172;45.550;12.072;2023-05-08T11:47:47;4.75;;;4.22;;
53287;SDS011;39172;45.550;12.072;2023-05-08T11:53:48;5.15;;;4.35;;
53287;SDS011;39172;45.550;12.072;2023-05-08T11:59:49;5.22;;;3.95;;
53287;SDS011;39172;45.550;12.072;2023-05-08T12:05:53;4.82;;;3.33;;
53287;SDS011;39172;45.550;12.072;2023-05-08T12:11:56;5.68;;;3.00;;
53287;SDS011;39172;45.550;12.072;2023-05-08T12:18:09;13.52;;;4.47;;
53287;SDS011;39172;45.550;12.072;2023-05-08T12:24:11;5.88;;;3.70;;
53287;SDS011;39172;45.550;12.072;2023-05-08T12:30:16;4.05;;;3.33;;
53287;SDS011;39172;45.550;12.072;2023-05-08T12:36:17;4.82;;;3.30;;
53287;SDS011;39172;45.550;12.072;2023-05-08T12:42:18;5.90;;;3.35;;
53287;SDS011;39172;45.550;12.072;2023-05-08T12:48:19;3.38;;;2.72;;
53287;SDS011;39172;45.550;12.072;2023-05-08T12:54:30;5.07;;;2.80;;
53287;SDS011;39172;45.550;12.072;2023-05-08T13:00:34;3.47;;;2.90;;
53287;SDS011;39172;45.550;12.072;2023-05-08T13:06:36;4.93;;;3.28;;
53287;SDS011;39172;45.550;12.072;2023-05-08T13:12:40;3.78;;;3.40;;
53287;SDS011;39172;45.550;12.072;2023-05-08T13:18:43;3.88;;;3.33;;
53287;SDS011;39172;45.550;12.072;2023-05-08T13:24:44;4.05;;;3.65;;
53287;SDS011;39172;45.550;12.072;2023-05-08T13:30:45;4.40;;;4.00;;
53287;SDS011;39172;45.550;12.072;2023-05-08T13:36:46;4.80;;;4.30;;
53287;SDS011;39172;45.550;12.072;2023-05-08T13:42:47;4.88;;;3.88;;
53287;SDS011;39172;45.550;12.072;2023-05-08T13:48:50;4.13;;;3.40;;
53287;SDS011;39172;45.550;12.072;2023-05-08T13:55:01;3.80;;;3.40;;
53287;SDS011;39172;45.550;12.072;2023-05-08T14:01:02;4.40;;;4.00;;
53287;SDS011;39172;45.550;12.072;2023-05-08T14:07:09;4.90;;;4.40;;
53287;SDS011;39172;45.550;12.072;2023-05-08T14:13:18;5.43;;;4.90;;
53287;SDS011;39172;45.550;12.072;2023-05-08T14:19:19;4.00;;;3.60;;
53287;SDS011;39172;45.550;12.072;2023-05-08T14:25:20;4.47;;;4.07;;
53287;SDS011;39172;45.550;12.072;2023-05-08T14:31:22;5.72;;;5.05;;
53287;SDS011;39172;45.550;12.072;2023-05-08T14:37:24;6.10;;;4.72;;
53287;SDS011;39172;45.550;12.072;2023-05-08T14:43:25;6.47;;;5.38;;
53287;SDS011;39172;45.550;12.072;2023-05-08T14:49:27;8.00;;;5.85;;
53287;SDS011;39172;45.550;12.072;2023-05-08T14:55:29;6.88;;;6.18;;
53287;SDS011;39172;45.550;12.072;2023-05-08T15:01:30;7.07;;;6.32;;
53287;SDS011;39172;45.550;12.072;2023-05-08T15:07:31;5.32;;;4.82;;
53287;SDS011;39172;45.550;12.072;2023-05-08T15:13:32;7.72;;;5.60;;
53287;SDS011;39172;45.550;12.072;2023-05-08T15:19:36;5.50;;;5.00;;
53287;SDS011;39172;45.550;12.072;2023-05-08T15:25:37;5.38;;;4.88;;
53287;SDS011;39172;45.550;12.072;2023-05-08T15:31:38;5.28;;;4.28;;
53287;SDS011;39172;45.550;12.072;2023-05-08T15:37:40;4.70;;;4.15;;
53287;SDS011;39172;45.550;12.072;2023-05-08T15:43:43;4.72;;;4.22;;
53287;SDS011;39172;45.550;12.072;2023-05-08T15:49:46;4.07;;;3.42;;
53287;SDS011;39172;45.550;12.072;2023-05-08T15:55:54;3.40;;;3.10;;
53287;SDS011;39172;45.550;12.072;2023-05-08T16:02:04;4.13;;;3.22;;
53287;SDS011;39172;45.550;12.072;2023-05-08T16:08:05;4.53;;;3.85;;
53287;SDS011;39172;45.550;12.072;2023-05-08T16:14:07;3.92;;;3.53;;
53287;SDS011;39172;45.550;12.072;2023-05-08T16:20:08;3.95;;;3.55;;
53287;SDS011;39172;45.550;12.072;2023-05-08T16:26:09;4.00;;;3.60;;
53287;SDS011;39172;45.550;12.072;2023-05-08T16:32:10;3.90;;;3.60;;
53287;SDS011;39172;45.550;12.072;2023-05-08T16:38:12;5.43;;;4.00;;
53287;SDS011;39172;45.550;12.072;2023-05-08T16:44:13;4.82;;;4.15;;
53287;SDS011;39172;45.550;12.072;2023-05-08T16:50:14;4.63;;;3.95;;
53287;SDS011;39172;45.550;12.072;2023-05-08T16:56:16;4.82;;;4.40;;
53287;SDS011;39172;45.550;12.072;2023-05-08T17:02:17;4.85;;;4.40;;
53287;SDS011;39172;45.550;12.072;2023-05-08T17:08:21;4.75;;;4.25;;
53287;SDS011;39172;45.550;12.072;2023-05-08T17:14:23;5.85;;;4.65;;
53287;SDS011;39172;45.550;12.072;2023-05-08T17:20:24;5.70;;;4.45;;
53287;SDS011;39172;45.550;12.072;2023-05-08T17:26:30;4.85;;;3.60;;
53287;SDS011;39172;45.550;12.072;2023-05-08T17:32:31;4.30;;;3.50;;
53287;SDS011;39172;45.550;12.072;2023-05-08T17:38:32;4.47;;;3.42;;
53287;SDS011;39172;45.550;12.072;2023-05-08T17:44:35;5.05;;;3.90;;
53287;SDS011;39172;45.550;12.072;2023-05-08T17:50:41;4.47;;;3.72;;
53287;SDS011;39172;45.550;12.072;2023-05-08T17:56:43;3.83;;;3.30;;
53287;SDS011;39172;45.550;12.072;2023-05-08T18:02:44;4.07;;;3.50;;
53287;SDS011;39172;45.550;12.072;2023-05-08T18:08:45;3.70;;;3.30;;
53287;SDS011;39172;45.550;12.072;2023-05-08T18:14:47;3.33;;;3.03;;
53287;SDS011;39172;45.550;12.072;2023-05-08T18:20:48;3.25;;;2.60;;
53287;SDS011;39172;45.550;12.072;2023-05-08T18:26:49;3.42;;;3.03;;
53287;SDS011;39172;45.550;12.072;2023-05-08T18:32:50;3.30;;;3.00;;
53287;SDS011;39172;45.550;12.072;2023-05-08T18:38:52;3.65;;;3.00;;
53287;SDS011;39172;45.550;12.072;2023-05-08T18:44:53;2.90;;;2.60;;
53287;SDS011;39172;45.550;12.072;2023-05-08T18:50:55;3.17;;;2.75;;
53287;SDS011;39172;45.550;12.072;2023-05-08T18:56:58;3.00;;;2.70;;
53287;SDS011;39172;45.550;12.072;2023-05-08T19:02:59;3.45;;;3.10;;
53287;SDS011;39172;45.550;12.072;2023-05-08T19:09:00;3.72;;;3.10;;
53287;SDS011;39172;45.550;12.072;2023-05-08T19:15:01;3.35;;;2.90;;
53287;SDS011;39172;45.550;12.072;2023-05-08T19:21:02;3.50;;;2.88;;
53287;SDS011;39172;45.550;12.072;2023-05-08T19:27:03;3.22;;;2.90;;
53287;SDS011;39172;45.550;12.072;2023-05-08T19:33:04;3.58;;;2.60;;
53287;SDS011;39172;45.550;12.072;2023-05-08T19:39:05;4.10;;;3.40;;
53287;SDS011;39172;45.550;12.072;2023-05-08T19:45:06;3.83;;;3.40;;
53287;SDS011;39172;45.550;12.072;2023-05-08T19:51:07;2.60;;;2.40;;
53287;SDS011;39172;45.550;12.072;2023-05-08T19:57:09;2.30;;;2.00;;
53287;SDS011;39172;45.550;12.072;2023-05-08T20:03:10;1.80;;;1.60;;
53287;SDS011;39172;45.550;12.072;2023-05-08T20:09:10;1.73;;;1.63;;
53287;SDS011;39172;45.550;12.072;2023-05-08T20:15:12;2.03;;;1.48;;
53287;SDS011;39172;45.550;12.072;2023-05-08T20:21:13;1.88;;;1.50;;
53287;SDS011;39172;45.550;12.072;2023-05-08T20:27:14;1.50;;;1.40;;
53287;SDS011;39172;45.550;12.072;2023-05-08T20:33:15;1.67;;;1.58;;
53287;SDS011;39172;45.550;12.072;2023-05-08T20:39:16;1.67;;;1.58;;
53287;SDS011;39172;45.550;12.072;2023-05-08T20:45:17;2.00;;;1.80;;
53287;SDS011;39172;45.550;12.072;2023-05-08T20:51:18;2.10;;;1.90;;
53287;SDS011;39172;45.550;12.072;2023-05-08T20:57:24;1.92;;;1.80;;
53287;SDS011;39172;45.550;12.072;2023-05-08T21:03:25;1.88;;;1.77;;
53287;SDS011;39172;45.550;12.072;2023-05-08T21:09:26;2.00;;;1.80;;
53287;SDS011;39172;45.550;12.072;2023-05-08T21:15:27;1.85;;;1.75;;
53287;SDS011;39172;45.550;12.072;2023-05-08T21:21:28;2.10;;;1.90;;
53287;SDS011;39172;45.550;12.072;2023-05-08T21:27:29;2.08;;;1.83;;
53287;SDS011;39172;45.550;12.072;2023-05-08T21:33:31;2.80;;;2.00;;
53287;SDS011;39172;45.550;12.072;2023-05-08T21:39:33;2.30;;;2.10;;
53287;SDS011;39172;45.550;12.072;2023-05-08T21:45:34;2.40;;;2.20;;
53287;SDS011;39172;45.550;12.072;2023-05-08T21:51:35;3.05;;;2.15;;
53287;SDS011;39172;45.550;12.072;2023-05-08T21:57:36;2.80;;;2.60;;
53287;SDS011;39172;45.550;12.072;2023-05-08T22:03:37;2.90;;;2.60;;
53287;SDS011;39172;45.550;12.072;2023-05-08T22:09:38;3.30;;;3.00;;
53287;SDS011;39172;45.550;12.072;2023-05-08T22:15:39;3.53;;;2.97;;
53287;SDS011;39172;45.550;12.072;2023-05-08T22:21:40;3.35;;;3.05;;
53287;SDS011;39172;45.550;12.072;2023-05-08T22:27:41;3.40;;;3.10;;
53287;SDS011;39172;45.550;12.072;2023-05-08T22:33:42;3.65;;;3.30;;
53287;SDS011;39172;45.550;12.072;2023-05-08T22:39:43;3.90;;;3.60;;
53287;SDS011;39172;45.550;12.072;2023-05-08T22:45:44;3.67;;;3.38;;
53287;SDS011;39172;45.550;12.072;2023-05-08T22:51:45;3.92;;;3.53;;
53287;SDS011;39172;45.550;12.072;2023-05-08T22:57:46;3.67;;;3.38;;
53287;SDS011;39172;45.550;12.072;2023-05-08T23:03:49;4.28;;;3.60;;
53287;SDS011;39172;45.550;12.072;2023-05-08T23:09:50;4.80;;;4.00;;
53287;SDS011;39172;45.550;12.072;2023-05-08T23:15:51;4.50;;;3.90;;
53287;SDS011;39172;45.550;12.072;2023-05-08T23:21:52;4.10;;;3.70;;
53287;SDS011;39172;45.550;12.072;2023-05-08T23:27:53;5.28;;;4.40;;
53287;SDS011;39172;45.550;12.072;2023-05-08T23:33:54;4.65;;;4.18;;
53287;SDS011;39172;45.550;12.072;2023-05-08T23:39:55;4.78;;;4.28;;
53287;SDS011;39172;45.550;12.072;2023-05-08T23:45:56;4.93;;;4.40;;
53287;SDS011;39172;45.550;12.072;2023-05-08T23:51:57;4.97;;;4.47;;
53287;SDS011;39172;45.550;12.072;2023-05-08T23:57:58;4.97;;;4.47;;
